Time;durP1;ratioP1;P1;durP2;ratioP2;P2;SDS_P1;SDS_P2;PMS_P1;PMS_P2;Temp;Humidity;BMP_temperature;BMP_pressure;BME280_temperature;BME280_humidity;BME280_pressure;Samples;Min_cycle;Max_cycle;Signal;HPM_P1;HPM_P2
2022/03/16 00:02:20;;;;;;;22.88;20.40;;;9.20;99.90;;;;;;5040774;28;20111;-70
2022/03/16 00:04:48;;;;;;;24.27;21.92;;;9.20;99.90;;;;;;5043191;28;20036;-72
2022/03/16 00:07:14;;;;;;;23.77;21.45;;;9.20;99.90;;;;;;5041685;28;20121;-70
2022/03/16 00:09:40;;;;;;;26.85;21.33;;;9.20;99.90;;;;;;5045072;28;20219;-72
2022/03/16 00:12:06;;;;;;;23.25;20.60;;;9.30;99.90;;;;;;5044788;28;20017;-69
2022/03/16 00:14:31;;;;;;;24.48;21.90;;;9.20;99.90;;;;;;5047705;28;20052;-68
2022/03/16 00:16:57;;;;;;;22.42;20.35;;;9.20;99.90;;;;;;5034889;28;20535;-72
2022/03/16 00:19:23;;;;;;;25.05;22.60;;;9.10;99.90;;;;;;5048122;28;20032;-72
2022/03/16 00:21:49;;;;;;;23.15;20.88;;;9.20;99.90;;;;;;5050195;28;20079;-70
2022/03/16 00:24:15;;;;;;;24.02;21.60;;;9.20;99.90;;;;;;5047766;28;20363;-73
2022/03/16 00:26:40;;;;;;;21.85;19.50;;;9.10;99.90;;;;;;5049373;28;20021;-72
2022/03/16 00:29:06;;;;;;;22.25;20.10;;;9.20;99.90;;;;;;5049092;28;20037;-70
2022/03/16 00:31:33;;;;;;;28.10;21.77;;;9.30;99.90;;;;;;5047897;28;20028;-72
2022/03/16 00:34:00;;;;;;;24.05;21.60;;;9.30;99.90;;;;;;5048795;28;20102;-72
2022/03/16 00:36:26;;;;;;;24.48;21.98;;;9.20;99.90;;;;;;5035413;28;20086;-72
2022/03/16 00:38:51;;;;;;;24.67;21.58;;;9.10;99.90;;;;;;5047755;28;20033;-72
2022/03/16 00:41:17;;;;;;;25.70;22.55;;;9.10;99.90;;;;;;5048580;28;20056;-70
2022/03/16 00:43:44;;;;;;;21.90;19.58;;;9.10;99.90;;;;;;5051037;28;20040;-71
2022/03/16 00:46:13;;;;;;;24.20;21.55;;;9.20;99.90;;;;;;5052992;28;20122;-72
2022/03/16 00:48:38;;;;;;;23.13;20.83;;;9.20;99.90;;;;;;5053278;28;20060;-70
2022/03/16 00:51:04;;;;;;;23.50;20.90;;;9.10;99.90;;;;;;5051514;28;20071;-72
2022/03/16 00:53:34;;;;;;;24.77;22.35;;;9.10;99.90;;;;;;5051701;28;20029;-70
2022/03/16 00:56:01;;;;;;;25.17;22.40;;;9.10;99.90;;;;;;5042072;28;20029;-71
2022/03/16 00:58:28;;;;;;;26.65;22.42;;;9.00;99.90;;;;;;5052549;28;20391;-74
2022/03/16 01:00:53;;;;;;;26.20;23.60;;;8.90;99.90;;;;;;5052289;28;20025;-73
2022/03/16 01:03:19;;;;;;;26.10;23.38;;;8.80;99.90;;;;;;5050808;28;20164;-74
2022/03/16 01:05:46;;;;;;;26.75;22.52;;;8.80;99.90;;;;;;5052609;28;20036;-74
2022/03/16 01:08:12;;;;;;;24.20;21.67;;;8.80;99.90;;;;;;5050748;28;20036;-70
2022/03/16 01:10:39;;;;;;;24.10;21.58;;;8.80;99.90;;;;;;5050839;28;20029;-71
2022/03/16 01:13:05;;;;;;;31.02;25.83;;;8.80;99.90;;;;;;5051218;28;20505;-71
2022/03/16 01:15:31;;;;;;;27.17;24.52;;;8.90;99.90;;;;;;5046786;28;20420;-70
2022/03/16 01:17:57;;;;;;;25.40;22.90;;;8.90;99.90;;;;;;5045331;28;20044;-70
2022/03/16 01:20:23;;;;;;;25.40;22.85;;;8.80;99.90;;;;;;5045872;28;20025;-70
2022/03/16 01:22:49;;;;;;;23.45;21.15;;;8.70;99.90;;;;;;5040704;28;20032;-70
2022/03/16 01:25:15;;;;;;;26.05;23.42;;;8.70;99.90;;;;;;5037176;28;20061;-71
2022/03/16 01:27:40;;;;;;;24.33;21.92;;;8.70;99.90;;;;;;5043933;28;20506;-71
2022/03/16 01:30:07;;;;;;;24.55;21.92;;;8.70;99.90;;;;;;5045269;28;20032;-73
2022/03/16 01:32:33;;;;;;;23.58;21.10;;;8.70;99.90;;;;;;5043964;28;20138;-70
2022/03/16 01:34:59;;;;;;;24.05;21.60;;;8.80;99.90;;;;;;5043528;28;20483;-70
2022/03/16 01:37:25;;;;;;;22.92;20.63;;;8.80;99.90;;;;;;5042365;28;20033;-72
2022/03/16 01:39:51;;;;;;;23.00;20.58;;;8.90;99.90;;;;;;5049429;28;20037;-74
2022/03/16 01:42:16;;;;;;;22.33;19.95;;;9.00;99.90;;;;;;5041614;28;20025;-72
2022/03/16 01:44:50;;;;;;;21.67;19.35;;;9.10;99.90;;;;;;5042635;28;20479;-70
2022/03/16 01:47:18;;;;;;;22.42;20.23;;;9.20;99.90;;;;;;5043571;28;20049;-71
2022/03/16 01:49:44;;;;;;;22.17;19.30;;;9.20;99.90;;;;;;5048448;28;20412;-72
2022/03/16 01:52:13;;;;;;;22.83;19.77;;;9.30;99.90;;;;;;5043431;28;20056;-71
2022/03/16 01:54:40;;;;;;;21.45;19.25;;;9.30;99.90;;;;;;5045521;28;20024;-73
2022/03/16 01:57:07;;;;;;;24.50;19.95;;;9.30;99.90;;;;;;5043417;28;20021;-72
2022/03/16 01:59:33;;;;;;;21.17;18.92;;;9.30;99.90;;;;;;5049966;28;20036;-72
2022/03/16 02:01:58;;;;;;;21.90;19.48;;;9.40;99.90;;;;;;5048715;28;20395;-70
2022/03/16 02:04:24;;;;;;;24.55;21.98;;;9.50;99.90;;;;;;5040824;28;20029;-71
2022/03/16 02:06:50;;;;;;;29.83;26.60;;;9.50;99.90;;;;;;5044894;28;20517;-72
2022/03/16 02:09:16;;;;;;;31.08;26.27;;;9.50;99.90;;;;;;5042701;28;20490;-71
2022/03/16 02:11:42;;;;;;;34.58;30.90;;;9.70;99.90;;;;;;5044451;28;20044;-71
2022/03/16 02:14:07;;;;;;;49.95;36.28;;;9.80;99.90;;;;;;5044833;28;20369;-73
2022/03/16 02:16:34;;;;;;;41.58;36.83;;;9.80;99.90;;;;;;5042559;28;20049;-70
2022/03/16 02:19:06;;;;;;;44.67;36.90;;;9.70;99.90;;;;;;5045599;28;20114;-73
2022/03/16 02:21:37;;;;;;;39.47;35.45;;;9.80;99.90;;;;;;5036024;28;20021;-70
2022/03/16 02:24:04;;;;;;;29.05;26.10;;;9.80;99.90;;;;;;5045606;28;20433;-72
2022/03/16 02:26:30;;;;;;;34.28;30.85;;;9.70;99.90;;;;;;5038239;28;20063;-72
2022/03/16 02:28:57;;;;;;;27.13;23.98;;;9.80;99.90;;;;;;5045144;28;20428;-77
2022/03/16 02:31:24;;;;;;;22.52;20.45;;;9.70;99.90;;;;;;5042805;28;20083;-73
2022/03/16 02:33:50;;;;;;;22.23;19.10;;;9.70;99.90;;;;;;5040588;28;20572;-70
2022/03/16 02:36:17;;;;;;;20.13;18.10;;;9.80;99.90;;;;;;5037817;28;20017;-73
2022/03/16 02:38:43;;;;;;;21.38;19.38;;;9.90;99.90;;;;;;5039067;28;20140;-71
2022/03/16 02:41:09;;;;;;;25.15;19.58;;;9.80;99.90;;;;;;5040920;28;20021;-70
2022/03/16 02:43:38;;;;;;;21.27;19.38;;;9.80;99.90;;;;;;5034802;28;20079;-70
2022/03/16 02:46:05;;;;;;;23.20;20.00;;;9.80;99.90;;;;;;5039278;28;20675;-71
2022/03/16 02:48:30;;;;;;;21.58;19.23;;;9.90;99.90;;;;;;5041613;28;20032;-75
2022/03/16 02:50:56;;;;;;;20.20;17.88;;;10.00;99.90;;;;;;5037732;28;20018;-72
2022/03/16 02:53:22;;;;;;;21.10;19.10;;;9.90;99.90;;;;;;5037214;28;20672;-70
2022/03/16 02:55:48;;;;;;;21.92;17.67;;;9.70;99.90;;;;;;5041250;28;20108;-73
2022/03/16 02:58:16;;;;;;;21.48;19.38;;;9.70;99.90;;;;;;5038763;28;20108;-70
2022/03/16 03:00:42;;;;;;;23.02;18.80;;;9.60;99.90;;;;;;5047360;28;20379;-71
2022/03/16 03:03:08;;;;;;;26.27;18.27;;;9.60;99.90;;;;;;5038875;28;20037;-70
2022/03/16 03:05:34;;;;;;;24.30;18.20;;;9.60;99.90;;;;;;5044592;28;20028;-71
2022/03/16 03:07:59;;;;;;;20.65;18.60;;;9.70;99.90;;;;;;5043637;28;20533;-71
2022/03/16 03:10:26;;;;;;;21.23;19.02;;;9.90;99.90;;;;;;5042992;28;20017;-74
2022/03/16 03:12:52;;;;;;;19.73;17.85;;;9.80;99.90;;;;;;5044334;28;20036;-71
2022/03/16 03:15:18;;;;;;;21.75;19.77;;;9.80;99.90;;;;;;5043200;28;20201;-70
2022/03/16 03:17:44;;;;;;;19.83;18.05;;;9.80;99.90;;;;;;5045511;28;20033;-71
2022/03/16 03:20:11;;;;;;;21.33;18.80;;;9.80;99.90;;;;;;5063747;28;20131;-71
2022/03/16 03:22:38;;;;;;;22.42;19.80;;;9.90;99.90;;;;;;5046756;28;20025;-71
2022/03/16 03:25:05;;;;;;;21.13;18.92;;;9.80;99.90;;;;;;5048310;28;20028;-73
2022/03/16 03:27:32;;;;;;;22.88;19.85;;;9.80;99.90;;;;;;5048014;28;20502;-73
2022/03/16 03:29:58;;;;;;;22.55;20.30;;;9.80;99.90;;;;;;5040867;28;20017;-70
2022/03/16 03:32:24;;;;;;;22.42;20.25;;;9.70;99.90;;;;;;5039472;28;20555;-70
2022/03/16 03:34:51;;;;;;;23.33;20.67;;;9.70;99.90;;;;;;5041225;28;20021;-70
2022/03/16 03:37:18;;;;;;;25.92;22.27;;;9.70;99.90;;;;;;5040380;28;20017;-72
2022/03/16 03:39:45;;;;;;;22.40;20.00;;;9.60;99.90;;;;;;5033318;28;20025;-73
2022/03/16 03:42:11;;;;;;;23.02;20.20;;;9.60;99.90;;;;;;5045021;28;20033;-70
2022/03/16 03:44:37;;;;;;;26.98;22.95;;;9.70;99.90;;;;;;5033222;28;20119;-71
2022/03/16 03:47:08;;;;;;;21.05;18.95;;;9.70;99.90;;;;;;5043778;28;20108;-72
2022/03/16 03:49:36;;;;;;;24.48;21.33;;;9.70;99.90;;;;;;5036970;28;20040;-70
2022/03/16 03:52:02;;;;;;;21.90;19.65;;;9.70;99.90;;;;;;5036934;28;20383;-71
2022/03/16 03:54:28;;;;;;;23.40;21.20;;;9.70;99.90;;;;;;5039117;28;20108;-70
2022/03/16 03:56:54;;;;;;;21.35;19.17;;;9.60;99.90;;;;;;5040367;28;20167;-71
2022/03/16 03:59:20;;;;;;;23.35;20.92;;;9.60;99.90;;;;;;5039615;28;20120;-70
2022/03/16 04:01:46;;;;;;;26.45;21.85;;;9.60;99.90;;;;;;5042799;28;20033;-70
2022/03/16 04:04:12;;;;;;;28.10;21.60;;;9.70;99.90;;;;;;5039914;28;20033;-70
2022/03/16 04:06:38;;;;;;;27.45;21.42;;;9.70;99.90;;;;;;5042533;28;20017;-73
2022/03/16 04:09:04;;;;;;;23.15;20.85;;;9.80;99.90;;;;;;5049780;28;20112;-69
2022/03/16 04:11:31;;;;;;;23.73;21.05;;;9.70;99.90;;;;;;5040043;28;20443;-69
2022/03/16 04:13:56;;;;;;;27.70;21.42;;;9.70;99.90;;;;;;5045853;28;20037;-70
2022/03/16 04:16:22;;;;;;;23.65;21.08;;;9.70;99.90;;;;;;5039870;28;20047;-70
2022/03/16 04:18:48;;;;;;;23.55;21.27;;;9.60;99.90;;;;;;5051171;28;20082;-69
2022/03/16 04:21:14;;;;;;;23.90;21.45;;;9.60;99.90;;;;;;5043355;28;20035;-69
2022/03/16 04:23:40;;;;;;;24.55;21.95;;;9.60;99.90;;;;;;5043405;28;20068;-70
2022/03/16 04:26:05;;;;;;;23.48;19.77;;;9.60;99.90;;;;;;5039441;28;20475;-70
2022/03/16 04:28:31;;;;;;;23.08;20.70;;;9.60;99.90;;;;;;5047151;28;20123;-71
2022/03/16 04:30:57;;;;;;;23.25;20.63;;;9.60;99.90;;;;;;5042295;28;20489;-71
2022/03/16 04:33:23;;;;;;;21.75;19.45;;;9.60;99.90;;;;;;5047467;28;20026;-71
2022/03/16 04:35:48;;;;;;;23.27;19.67;;;9.60;99.90;;;;;;5049008;28;20037;-71
2022/03/16 04:38:14;;;;;;;23.00;20.75;;;9.70;99.90;;;;;;5044776;28;20541;-72
2022/03/16 04:40:40;;;;;;;21.08;19.00;;;9.70;99.90;;;;;;5046316;28;20071;-71
2022/03/16 04:43:06;;;;;;;21.80;19.60;;;9.70;99.90;;;;;;5043681;28;20086;-70
2022/03/16 04:45:31;;;;;;;25.65;19.83;;;9.70;99.90;;;;;;5048141;28;20025;-70
2022/03/16 04:47:57;;;;;;;21.48;19.30;;;9.80;99.90;;;;;;5049232;28;20036;-72
2022/03/16 04:50:46;;;;;;;21.63;19.50;;;9.80;99.90;;;;;;5046509;28;20021;-71
2022/03/16 04:53:32;;;;;;;23.63;20.02;;;9.80;99.90;;;;;;5048149;28;20030;-74
2022/03/16 04:55:59;;;;;;;22.25;19.80;;;9.80;99.90;;;;;;5047497;28;20096;-73
2022/03/16 04:58:38;;;;;;;21.98;18.73;;;9.90;99.90;;;;;;5046756;28;20121;-75
2022/03/16 05:01:24;;;;;;;21.65;18.98;;;9.90;99.90;;;;;;5046438;28;20033;-73
2022/03/16 05:04:05;;;;;;;22.52;20.27;;;10.00;99.90;;;;;;5046701;28;20029;-71
2022/03/16 05:06:41;;;;;;;22.90;19.52;;;10.00;99.90;;;;;;5045288;28;20117;-71
2022/03/16 05:09:08;;;;;;;24.48;19.83;;;10.00;99.90;;;;;;5062248;28;20072;-76
2022/03/16 05:11:58;;;;;;;22.35;20.08;;;10.00;99.90;;;;;;5047265;28;20100;-74
2022/03/16 05:14:27;;;;;;;22.65;20.40;;;10.00;99.90;;;;;;5048231;28;20152;-76
2022/03/16 05:17:00;;;;;;;24.15;20.65;;;10.00;99.90;;;;;;5046578;28;20036;-71
2022/03/16 05:19:26;;;;;;;22.13;19.70;;;10.00;99.90;;;;;;5042881;28;20061;-73
2022/03/16 05:21:52;;;;;;;23.23;20.77;;;10.00;99.90;;;;;;5045470;28;20126;-73
2022/03/16 05:24:22;;;;;;;23.75;21.35;;;10.00;99.90;;;;;;5061498;28;20036;-74
2022/03/16 05:26:58;;;;;;;26.05;21.20;;;10.10;99.90;;;;;;5044066;28;20025;-73
2022/03/16 05:29:27;;;;;;;21.70;19.52;;;10.10;99.90;;;;;;5042613;28;20032;-73
2022/03/16 05:31:53;;;;;;;22.83;18.50;;;10.10;99.90;;;;;;5045286;28;20039;-71
2022/03/16 05:34:22;;;;;;;21.75;19.52;;;10.00;99.90;;;;;;5045854;28;20035;-74
2022/03/16 05:37:05;;;;;;;28.50;21.88;;;10.10;99.90;;;;;;5042199;28;20036;-71
2022/03/16 05:39:36;;;;;;;26.73;19.17;;;10.20;99.90;;;;;;5044449;28;20036;-74
2022/03/16 05:45:10;;;;;;;24.77;18.92;;;10.30;99.90;;;;;;5042967;28;20808;-72
2022/03/16 05:47:37;;;;;;;34.85;20.15;;;10.30;99.90;;;;;;5052643;28;20077;-73
2022/03/16 05:50:05;;;;;;;22.70;20.40;;;10.30;99.90;;;;;;5044535;28;20044;-75
2022/03/16 05:52:31;;;;;;;21.77;19.20;;;10.40;99.90;;;;;;5046445;28;20029;-71
2022/03/16 05:54:59;;;;;;;25.15;19.98;;;10.30;99.90;;;;;;5044224;28;20369;-73
2022/03/16 05:57:25;;;;;;;23.13;20.50;;;10.30;99.90;;;;;;5047352;28;20067;-72
2022/03/16 05:59:52;;;;;;;24.88;21.63;;;10.50;99.90;;;;;;5044229;28;20029;-73
2022/03/16 06:02:18;;;;;;;21.20;19.00;;;10.40;99.90;;;;;;5045981;28;20025;-69
2022/03/16 06:04:44;;;;;;;23.67;21.25;;;10.50;99.90;;;;;;5043621;28;20017;-71
2022/03/16 06:07:11;;;;;;;20.83;18.50;;;10.60;99.90;;;;;;5039683;28;20032;-74
2022/03/16 06:09:37;;;;;;;22.77;20.42;;;10.60;99.90;;;;;;5049993;28;20032;-72
2022/03/16 06:12:04;;;;;;;21.88;19.35;;;10.60;99.90;;;;;;5044130;28;20379;-72
2022/03/16 06:14:31;;;;;;;26.77;21.92;;;10.50;99.90;;;;;;5051491;28;20514;-71
2022/03/16 06:16:57;;;;;;;23.38;19.80;;;10.60;99.90;;;;;;5040062;28;20066;-71
2022/03/16 06:19:23;;;;;;;28.98;19.30;;;10.60;99.90;;;;;;5051822;28;20040;-72
2022/03/16 06:21:49;;;;;;;29.35;21.58;;;10.60;99.90;;;;;;5044182;28;20086;-72
2022/03/16 06:24:16;;;;;;;23.80;21.35;;;10.70;99.90;;;;;;5048898;28;20036;-76
2022/03/16 06:26:42;;;;;;;44.00;21.67;;;10.70;99.90;;;;;;5043282;28;20024;-73
2022/03/16 06:29:09;;;;;;;23.67;21.17;;;10.70;99.90;;;;;;5048726;28;20053;-71
2022/03/16 06:31:35;;;;;;;21.10;18.98;;;10.70;99.90;;;;;;5044731;28;20203;-71
2022/03/16 06:34:01;;;;;;;22.70;20.38;;;10.70;99.90;;;;;;5045502;28;20124;-71
2022/03/16 06:36:27;;;;;;;23.40;21.08;;;10.70;99.90;;;;;;5057964;28;20364;-71
2022/03/16 06:38:54;;;;;;;23.55;21.15;;;10.70;99.90;;;;;;5048127;28;20036;-70
2022/03/16 06:41:20;;;;;;;27.58;20.40;;;10.80;99.90;;;;;;5044886;28;20025;-72
2022/03/16 06:43:46;;;;;;;22.85;20.33;;;10.80;99.90;;;;;;5049800;28;20109;-70
2022/03/16 06:46:12;;;;;;;26.35;21.08;;;10.80;99.90;;;;;;5050279;28;20123;-73
2022/03/16 06:48:37;;;;;;;24.60;21.73;;;10.90;99.90;;;;;;5050273;28;20558;-71
2022/03/16 06:51:03;;;;;;;25.45;22.75;;;10.90;99.90;;;;;;5048715;28;20112;-70
2022/03/16 06:53:29;;;;;;;29.42;22.10;;;10.90;99.90;;;;;;5043529;28;20471;-74
2022/03/16 06:55:55;;;;;;;25.30;22.70;;;10.90;99.90;;;;;;5053509;28;20436;-72
2022/03/16 06:58:21;;;;;;;24.67;21.92;;;10.90;99.90;;;;;;5051309;28;20082;-71
2022/03/16 07:00:47;;;;;;;26.17;23.55;;;11.00;99.90;;;;;;5050527;28;20108;-71
2022/03/16 07:03:13;;;;;;;25.15;21.73;;;10.90;99.90;;;;;;5051475;28;20512;-72
2022/03/16 07:05:40;;;;;;;31.83;24.08;;;11.00;99.90;;;;;;5045565;28;20039;-71
2022/03/16 07:08:15;;;;;;;26.33;23.65;;;11.10;99.90;;;;;;5041175;28;20028;-71
2022/03/16 07:10:43;;;;;;;24.90;21.33;;;11.10;99.90;;;;;;5055358;28;20020;-72
2022/03/16 07:13:12;;;;;;;33.40;23.52;;;11.20;99.90;;;;;;5059129;28;20126;-71
2022/03/16 07:15:40;;;;;;;26.20;22.77;;;11.30;99.90;;;;;;5042256;28;20028;-70
2022/03/16 07:18:05;;;;;;;30.17;24.35;;;11.40;99.90;;;;;;5042824;28;20112;-70
2022/03/16 07:20:35;;;;;;;30.42;24.73;;;11.50;99.90;;;;;;5041383;28;20088;-72
2022/03/16 07:23:05;;;;;;;26.70;24.08;;;11.60;99.90;;;;;;5037683;28;20037;-73
2022/03/16 07:25:31;;;;;;;24.40;21.90;;;11.70;99.90;;;;;;5040011;28;20031;-74
2022/03/16 07:27:57;;;;;;;28.40;23.65;;;11.80;99.90;;;;;;5039811;28;20024;-74
2022/03/16 07:30:23;;;;;;;28.08;24.17;;;11.80;99.90;;;;;;5037521;28;20018;-71
2022/03/16 07:32:49;;;;;;;24.15;21.60;;;11.80;99.90;;;;;;5038613;28;20033;-74
2022/03/16 07:35:15;;;;;;;25.08;22.48;;;12.00;99.90;;;;;;5040478;28;20426;-72
2022/03/16 07:37:47;;;;;;;24.55;21.95;;;12.10;99.90;;;;;;5045917;28;20234;-73
2022/03/16 07:40:13;;;;;;;30.15;23.40;;;12.10;99.90;;;;;;5040942;28;20071;-67
2022/03/16 07:42:43;;;;;;;30.92;23.17;;;12.00;99.90;;;;;;5046420;28;20056;-66
2022/03/16 07:45:10;;;;;;;27.95;21.27;;;12.00;99.90;;;;;;5043763;28;20102;-66
2022/03/16 07:47:36;;;;;;;26.33;22.77;;;12.20;99.90;;;;;;5045842;28;20021;-66
2022/03/16 07:50:02;;;;;;;32.25;25.52;;;12.20;99.90;;;;;;5047534;28;20021;-66
2022/03/16 07:52:27;;;;;;;27.33;24.48;;;12.40;99.90;;;;;;5048946;28;20440;-67
2022/03/16 07:54:54;;;;;;;38.47;24.77;;;12.30;99.90;;;;;;5054916;28;20108;-65
2022/03/16 07:57:19;;;;;;;32.80;23.83;;;12.20;99.90;;;;;;5054679;28;20033;-66
2022/03/16 07:59:45;;;;;;;30.52;25.75;;;12.20;99.90;;;;;;5054350;28;20021;-65
2022/03/16 08:02:16;;;;;;;34.55;24.30;;;12.20;99.90;;;;;;5054469;28;20037;-66
2022/03/16 08:04:41;;;;;;;26.48;23.73;;;12.20;99.90;;;;;;5052423;28;20060;-68
2022/03/16 08:07:09;;;;;;;30.55;27.48;;;12.10;99.90;;;;;;5054906;28;20057;-67
2022/03/16 08:09:36;;;;;;;28.30;25.50;;;12.00;99.90;;;;;;5054522;28;20017;-67
2022/03/16 08:12:02;;;;;;;28.38;23.75;;;12.00;99.90;;;;;;5053938;28;20375;-68
2022/03/16 08:14:28;;;;;;;29.20;23.85;;;12.10;99.90;;;;;;5053007;28;20439;-67
2022/03/16 08:16:54;;;;;;;30.05;23.92;;;12.20;99.90;;;;;;5053697;28;20060;-67
2022/03/16 08:19:21;;;;;;;28.75;25.83;;;12.40;99.90;;;;;;5053264;28;20166;-67
2022/03/16 08:21:47;;;;;;;29.38;25.33;;;12.60;99.90;;;;;;5052307;28;20057;-66
2022/03/16 08:24:14;;;;;;;38.28;26.23;;;12.70;99.90;;;;;;5053929;28;20025;-66
2022/03/16 08:26:40;;;;;;;33.78;27.23;;;12.80;99.90;;;;;;5051100;28;20495;-66
2022/03/16 08:29:07;;;;;;;35.33;27.88;;;12.80;99.90;;;;;;5043172;28;20036;-67
2022/03/16 08:31:33;;;;;;;31.55;28.02;;;12.80;99.90;;;;;;5044810;28;20064;-66
2022/03/16 08:34:01;;;;;;;36.35;27.08;;;12.80;99.90;;;;;;5041002;28;20039;-65
2022/03/16 08:36:26;;;;;;;30.00;26.80;;;12.80;99.90;;;;;;5040461;28;20017;-65
2022/03/16 08:38:52;;;;;;;34.22;27.45;;;12.80;99.90;;;;;;5041087;28;20033;-66
2022/03/16 08:41:18;;;;;;;29.23;24.52;;;12.80;99.90;;;;;;5042775;28;20028;-66
2022/03/16 08:43:45;;;;;;;38.25;28.33;;;12.80;99.90;;;;;;5041504;28;20101;-67
2022/03/16 08:46:11;;;;;;;30.85;27.77;;;12.80;99.90;;;;;;5048475;28;20104;-67
2022/03/16 08:48:37;;;;;;;31.80;26.98;;;12.90;99.90;;;;;;5046681;28;20029;-66
2022/03/16 08:51:03;;;;;;;35.33;31.52;;;13.00;99.90;;;;;;5040855;28;20022;-66
2022/03/16 08:53:29;;;;;;;45.10;33.58;;;13.10;99.90;;;;;;5047031;28;20109;-66
2022/03/16 08:55:55;;;;;;;39.30;35.05;;;13.20;99.90;;;;;;5042209;28;20026;-67
2022/03/16 08:58:21;;;;;;;42.45;35.88;;;13.30;99.90;;;;;;5039039;28;20037;-67
2022/03/16 09:00:47;;;;;;;45.47;37.97;;;13.40;99.90;;;;;;5045661;28;20133;-65
2022/03/16 09:03:13;;;;;;;41.65;37.20;;;13.60;99.90;;;;;;5046464;28;20044;-67
2022/03/16 09:05:38;;;;;;;46.05;39.55;;;13.80;99.90;;;;;;5039506;28;20145;-66
2022/03/16 09:08:04;;;;;;;43.58;39.05;;;13.80;99.90;;;;;;5038120;28;20076;-67
2022/03/16 09:10:30;;;;;;;43.17;38.47;;;14.00;99.90;;;;;;5044477;28;20447;-67
2022/03/16 09:12:56;;;;;;;41.70;37.35;;;14.00;99.90;;;;;;5044360;28;20110;-66
2022/03/16 09:15:22;;;;;;;39.97;35.60;;;13.90;99.90;;;;;;5042880;28;20021;-66
2022/03/16 09:17:47;;;;;;;42.33;37.85;;;13.90;99.90;;;;;;5039831;28;20040;-66
2022/03/16 09:20:13;;;;;;;44.05;39.58;;;14.00;99.90;;;;;;5042939;28;20155;-65
2022/03/16 09:22:39;;;;;;;47.67;39.75;;;14.20;99.90;;;;;;5034855;28;20114;-67
2022/03/16 09:25:07;;;;;;;48.03;42.78;;;14.30;99.90;;;;;;5041660;28;20029;-66
2022/03/16 09:27:35;;;;;;;45.60;40.88;;;14.40;99.90;;;;;;5042963;28;20017;-66
2022/03/16 09:30:01;;;;;;;51.03;40.30;;;14.60;99.90;;;;;;5038144;28;20052;-69
2022/03/16 09:32:27;;;;;;;46.83;40.55;;;14.70;99.90;;;;;;5044436;28;20020;-66
2022/03/16 09:34:53;;;;;;;47.03;40.80;;;14.70;99.90;;;;;;5035012;28;20027;-66
2022/03/16 09:37:19;;;;;;;47.30;40.70;;;14.70;99.90;;;;;;5044179;28;20108;-67
2022/03/16 09:39:45;;;;;;;45.70;41.25;;;14.70;99.90;;;;;;5038377;28;20036;-65
2022/03/16 09:42:10;;;;;;;43.60;39.03;;;14.80;99.90;;;;;;5041547;28;20633;-66
2022/03/16 09:44:37;;;;;;;49.92;40.88;;;15.00;99.90;;;;;;5042765;28;20399;-66
2022/03/16 09:47:04;;;;;;;45.22;40.05;;;15.10;99.90;;;;;;5040269;28;20063;-66
2022/03/16 09:49:31;;;;;;;43.85;39.33;;;15.00;99.90;;;;;;5047115;28;20021;-65
2022/03/16 09:51:58;;;;;;;39.42;34.92;;;14.70;99.90;;;;;;5041925;28;20017;-65
2022/03/16 09:54:25;;;;;;;39.63;33.25;;;14.50;99.90;;;;;;5043048;28;20021;-66
2022/03/16 09:56:52;;;;;;;37.88;33.97;;;14.10;99.90;;;;;;5043118;28;20028;-66
2022/03/16 09:59:20;;;;;;;35.05;31.30;;;13.90;99.90;;;;;;5042622;28;20021;-66
2022/03/16 10:01:45;;;;;;;37.65;30.73;;;13.70;99.90;;;;;;5045073;28;20174;-66
2022/03/16 10:04:11;;;;;;;35.38;27.95;;;13.70;99.90;;;;;;5044219;28;20027;-65
2022/03/16 10:06:40;;;;;;;42.15;29.52;;;13.40;99.90;;;;;;5043363;28;20102;-66
2022/03/16 10:15:05;;;;;;;29.98;26.75;;;13.10;99.90;;;;;;5038880;28;20654;-66
2022/03/16 10:17:46;;;;;;;33.63;28.25;;;12.90;99.90;;;;;;5047284;28;20029;-67
2022/03/16 10:20:21;;;;;;;31.25;27.77;;;12.80;99.90;;;;;;5040241;28;20055;-68
2022/03/16 10:22:58;;;;;;;32.65;29.17;;;12.70;99.90;;;;;;5037985;28;20053;-68
2022/03/16 10:25:25;;;;;;;35.33;28.25;;;12.70;99.90;;;;;;5039060;28;20078;-67
2022/03/16 10:27:51;;;;;;;31.13;25.92;;;12.80;99.90;;;;;;5047119;28;20033;-66
2022/03/16 10:30:16;;;;;;;28.02;25.02;;;12.80;99.90;;;;;;5051095;28;20028;-66
2022/03/16 10:32:53;;;;;;;27.83;24.98;;;12.90;99.90;;;;;;5051339;28;20031;-65
2022/03/16 10:35:19;;;;;;;26.88;24.02;;;12.80;99.90;;;;;;5050212;28;20383;-67
2022/03/16 10:37:47;;;;;;;31.50;24.70;;;13.00;99.90;;;;;;5051215;28;20021;-67
2022/03/16 10:40:26;;;;;;;29.45;26.20;;;13.20;99.90;;;;;;5050913;28;20051;-66
2022/03/16 10:48:25;;;;;;;30.70;24.17;;;13.00;99.90;;;;;;5041352;28;20522;-66
2022/03/16 10:50:56;;;;;;;27.38;24.65;;;13.10;99.90;;;;;;5046266;28;20033;-66
2022/03/16 10:53:29;;;;;;;29.85;24.25;;;13.20;99.90;;;;;;5045650;28;20483;-66
2022/03/16 10:55:57;;;;;;;28.98;24.85;;;13.10;99.90;;;;;;5040955;28;20059;-65
2022/03/16 10:58:24;;;;;;;28.98;23.90;;;13.10;99.90;;;;;;5043843;28;20029;-66
2022/03/16 11:00:52;;;;;;;29.58;23.88;;;13.00;99.90;;;;;;5042241;28;20166;-68
2022/03/16 11:03:23;;;;;;;26.45;23.08;;;12.70;99.90;;;;;;5042207;28;20022;-66
2022/03/16 11:05:49;;;;;;;24.53;22.23;;;12.40;99.90;;;;;;5040491;28;20036;-66
2022/03/16 11:08:16;;;;;;;23.50;20.92;;;12.30;99.90;;;;;;5044615;28;20424;-67
2022/03/16 11:10:43;;;;;;;29.42;24.35;;;12.20;99.90;;;;;;5037572;28;20025;-66
2022/03/16 11:13:29;;;;;;;27.15;24.45;;;12.10;99.90;;;;;;5045752;28;20048;-66
2022/03/16 11:15:57;;;;;;;29.02;24.00;;;12.20;99.90;;;;;;5040837;28;20022;-66
2022/03/16 11:18:23;;;;;;;27.67;23.73;;;12.20;99.90;;;;;;5045558;28;20493;-66
2022/03/16 11:20:52;;;;;;;33.17;22.73;;;12.30;99.90;;;;;;5033622;28;20030;-67
2022/03/16 11:26:56;;;;;;;30.42;27.23;;;12.20;99.90;;;;;;5040775;28;20434;-68
2022/03/16 11:29:44;;;;;;;38.80;28.02;;;12.20;99.90;;;;;;5044340;28;20075;-67
2022/03/16 11:32:12;;;;;;;31.90;28.50;;;12.30;99.90;;;;;;5030535;28;20013;-67
2022/03/16 11:34:38;;;;;;;38.30;30.52;;;12.30;99.90;;;;;;5043701;28;20040;-67
2022/03/16 11:37:10;;;;;;;34.75;31.02;;;12.30;99.90;;;;;;5040713;28;20392;-67
2022/03/16 11:39:44;;;;;;;38.47;29.27;;;12.20;99.90;;;;;;5041968;28;20036;-67
2022/03/16 11:42:17;;;;;;;40.03;35.50;;;12.20;99.90;;;;;;5042916;28;20402;-66
2022/03/16 11:44:43;;;;;;;50.10;37.38;;;12.20;99.90;;;;;;5042190;28;20079;-68
2022/03/16 11:47:16;;;;;;;50.35;39.10;;;12.20;99.90;;;;;;5042248;28;20028;-66
2022/03/16 11:50:02;;;;;;;49.40;41.72;;;12.20;99.90;;;;;;5046125;28;20049;-66
2022/03/16 11:52:59;;;;;;;55.70;42.67;;;12.30;99.90;;;;;;5042815;28;20025;-67
2022/03/16 11:55:42;;;;;;;58.33;47.90;;;12.20;99.90;;;;;;5041622;28;20096;-65
2022/03/16 11:58:25;;;;;;;70.72;54.55;;;12.10;99.90;;;;;;5040900;28;20112;-66
2022/03/16 12:01:12;;;;;;;57.60;51.38;;;12.10;99.90;;;;;;5042341;28;20082;-64
2022/03/16 12:03:44;;;;;;;70.75;60.70;;;12.30;99.90;;;;;;5034639;28;20065;-66
2022/03/16 12:06:10;;;;;;;81.57;68.53;;;12.30;99.90;;;;;;5044632;28;20021;-66
2022/03/16 12:08:51;;;;;;;79.32;70.10;;;12.40;99.90;;;;;;5035857;28;20483;-66
2022/03/16 12:14:06;;;;;;;88.50;74.38;;;12.40;99.90;;;;;;5042287;28;20579;-67
2022/03/16 12:16:44;;;;;;;84.25;75.20;;;12.50;99.90;;;;;;5047197;28;20026;-67
2022/03/16 12:19:31;;;;;;;89.65;75.18;;;12.60;99.90;;;;;;5049583;28;20036;-67
2022/03/16 12:21:57;;;;;;;84.10;75.05;;;12.70;99.90;;;;;;5051770;28;20025;-67
2022/03/16 12:30:06;;;;;;;95.13;82.88;;;12.60;99.90;;;;;;5040522;28;20113;-67
2022/03/16 12:32:36;;;;;;;97.75;86.70;;;12.70;99.90;;;;;;5047151;28;20025;-67
2022/03/16 12:35:06;;;;;;;94.95;84.13;;;12.60;99.90;;;;;;5036975;28;20047;-66
2022/03/16 12:37:48;;;;;;;85.72;76.78;;;12.80;99.90;;;;;;5049214;28;20027;-66
2022/03/16 12:40:14;;;;;;;89.55;79.18;;;12.80;99.90;;;;;;5053110;28;20075;-66
2022/03/16 12:42:42;;;;;;;90.45;77.15;;;12.80;99.90;;;;;;5052481;28;20047;-67
2022/03/16 12:45:09;;;;;;;86.72;76.05;;;13.00;99.90;;;;;;5054628;28;20025;-66
2022/03/16 12:47:41;;;;;;;93.38;78.00;;;13.20;99.90;;;;;;5053244;28;20490;-67
2022/03/16 12:50:12;;;;;;;93.95;84.28;;;13.30;99.90;;;;;;5052867;28;20028;-66
2022/03/16 12:52:40;;;;;;;103.13;86.65;;;13.30;99.90;;;;;;5051734;28;20098;-67
2022/03/16 12:55:11;;;;;;;90.55;80.90;;;13.40;99.90;;;;;;5053680;28;20487;-65
2022/03/16 12:57:38;;;;;;;92.82;81.28;;;13.50;99.90;;;;;;5053525;28;20025;-66
2022/03/16 13:00:12;;;;;;;100.30;84.53;;;13.70;99.90;;;;;;5053134;28;20040;-66
2022/03/16 13:02:38;;;;;;;94.45;84.07;;;14.00;99.90;;;;;;5053313;28;20037;-66